KVGT Airport (North Las Vegas) Information

FAA: VGT - ICAO: KVGT

KVGT Airport Location

State Nevada
County Clark
City Las Vegas
KVGT Airport is 3 miles northwest of Las Vegas, NV.
Latitude 36-12-38.5310N
Longitude 115-11-39.9940W
Elevation 2,205ft

KVGT Airport METARs

METAR KVGT 060653Z AUTO 34008KT 10SM CLR 16/M09 A3009 RMK AO2 SLP198 T01611089
Altimeter 30.09"
Temperature 16.1°C (61.0°F)
Wind 340° at 8KT
Clouds Skies are clear.
Visibility 10.0mi
Time observed: 2021-12-06T06:53:00Z

KVGT Airport Details

Status Operational
Activation January 1942
Ownership Public
Usage Public
Chart LAS VEGAS
ATC on-site Yes
Beacon schedule sunset-sunrise
Beacon color clear green

KVGT Airport Contacts

Owner CLARK COUNTY
Owner address 2730 AIRPORT DR SUITE 101, NORTH LAS VEGAS, NV 89032
Owner phone 702-261-3800
Manager JOHN RICE
Manager address P.O. BOX 903, FERNLEY, NV 89408
Manager phone (775) 240-3481

KVGT Airport (North Las Vegas) Radio Frequencies

KVGT (Airport) Radio Frequencies

UNICOM 122.95
Common traffic advisory frequency (CTAF) 125.7